createdAt,value
2024-02-14T00:02:06.987Z,6.70
2024-02-14T00:04:33.674Z,6.70
2024-02-14T00:07:00.826Z,6.70
2024-02-14T00:09:27.563Z,6.60
2024-02-14T00:11:54.337Z,6.60
2024-02-14T00:14:21.899Z,6.50
2024-02-14T00:16:48.686Z,6.50
2024-02-14T00:19:16.021Z,6.40
2024-02-14T00:21:42.784Z,6.40
2024-02-14T00:24:09.668Z,6.30
2024-02-14T00:26:37.619Z,6.20
2024-02-14T00:29:04.297Z,6.20
2024-02-14T00:31:30.931Z,6.20
2024-02-14T00:33:57.855Z,6.20
2024-02-14T00:36:24.653Z,6.10
2024-02-14T00:38:52.314Z,6.10
2024-02-14T00:41:19.414Z,6.00
2024-02-14T00:43:46.035Z,6.00
2024-02-14T00:46:18.924Z,6.00
2024-02-14T00:48:45.803Z,6.00
2024-02-14T00:51:13.273Z,6.00
2024-02-14T00:53:40.048Z,6.00
2024-02-14T00:56:07.121Z,6.00
2024-02-14T00:58:33.796Z,6.00
2024-02-14T01:01:00.587Z,6.00
2024-02-14T01:03:27.481Z,6.10
2024-02-14T01:05:54.697Z,6.00
2024-02-14T01:08:21.880Z,6.00
2024-02-14T01:10:51.399Z,6.00
2024-02-14T01:13:19.799Z,6.00
2024-02-14T01:15:46.565Z,6.00
2024-02-14T01:18:13.327Z,5.90
2024-02-14T01:20:40.116Z,5.90
2024-02-14T01:23:07.325Z,5.90
2024-02-14T01:25:33.993Z,5.90
2024-02-14T01:28:00.988Z,5.90
2024-02-14T01:30:27.850Z,5.90
2024-02-14T01:32:55.369Z,5.90
2024-02-14T01:35:22.270Z,5.90
2024-02-14T01:37:48.895Z,5.90
2024-02-14T01:40:16.069Z,5.90
2024-02-14T01:42:42.724Z,6.00
2024-02-14T01:45:09.824Z,6.00
2024-02-14T01:47:36.560Z,6.00
2024-02-14T01:50:03.530Z,6.00
2024-02-14T01:52:30.359Z,6.00
2024-02-14T01:54:57.145Z,6.00
2024-02-14T01:57:25.036Z,6.00
2024-02-14T01:59:54.321Z,6.00
2024-02-14T02:02:21.190Z,6.00
2024-02-14T02:04:48.137Z,6.10
2024-02-14T02:07:14.870Z,6.10
2024-02-14T02:09:41.503Z,6.10
2024-02-14T02:12:08.793Z,6.10
2024-02-14T02:14:35.658Z,6.10
2024-02-14T02:17:02.960Z,6.10
2024-02-14T02:19:29.987Z,6.10
2024-02-14T02:21:56.686Z,6.10
2024-02-14T02:24:23.342Z,6.10
2024-02-14T02:26:50.023Z,6.10
2024-02-14T02:29:17.556Z,6.10
2024-02-14T02:31:44.337Z,6.10
2024-02-14T02:34:11.992Z,6.10
2024-02-14T02:36:40.112Z,6.20
2024-02-14T02:39:06.853Z,6.10
2024-02-14T02:41:34.349Z,6.20
2024-02-14T02:44:02.733Z,6.20
2024-02-14T02:46:30.630Z,6.20
2024-02-14T02:48:58.277Z,6.20
2024-02-14T02:51:25.322Z,6.20
2024-02-14T02:53:54.804Z,6.20
2024-02-14T02:56:23.102Z,6.20
2024-02-14T02:58:49.966Z,6.30
2024-02-14T03:01:16.612Z,6.30
2024-02-14T03:03:43.732Z,6.30
2024-02-14T03:06:10.564Z,6.30
2024-02-14T03:08:37.435Z,6.30
2024-02-14T03:11:07.696Z,6.30
2024-02-14T03:13:34.819Z,6.30
2024-02-14T03:16:02.037Z,6.30
2024-02-14T03:18:28.843Z,6.30
2024-02-14T03:20:55.610Z,6.40
2024-02-14T03:23:23.419Z,6.40
2024-02-14T03:25:50.122Z,6.30
2024-02-14T03:28:16.785Z,6.40
2024-02-14T03:30:43.471Z,6.40
2024-02-14T03:33:11.672Z,6.40
2024-02-14T03:35:38.446Z,6.40
2024-02-14T03:38:05.260Z,6.40
2024-02-14T03:40:32.628Z,6.40
2024-02-14T03:43:00.133Z,6.40
2024-02-14T03:45:30.742Z,6.50
2024-02-14T03:47:57.566Z,6.40
2024-02-14T03:50:24.332Z,6.50
2024-02-14T03:52:51.018Z,6.50
2024-02-14T03:55:20.061Z,6.50
2024-02-14T03:57:48.020Z,6.50
2024-02-14T04:00:15.574Z,6.60
2024-02-14T04:02:42.357Z,6.60
2024-02-14T04:05:10.107Z,6.60
2024-02-14T04:07:38.270Z,6.60
2024-02-14T04:10:05.636Z,6.60
2024-02-14T04:12:32.762Z,6.70
2024-02-14T04:14:59.486Z,6.70
2024-02-14T04:17:26.264Z,6.70
2024-02-14T04:19:53.089Z,6.70
2024-02-14T04:22:20.211Z,6.70
2024-02-14T04:24:46.955Z,6.70
2024-02-14T04:27:13.943Z,6.80
2024-02-14T04:29:40.684Z,6.70
2024-02-14T04:32:07.503Z,6.80
2024-02-14T04:34:34.358Z,6.80
2024-02-14T04:37:01.196Z,6.80
2024-02-14T04:39:27.850Z,6.90
2024-02-14T04:42:01.487Z,6.80
2024-02-14T04:44:30.603Z,6.90
2024-02-14T04:46:59.249Z,6.90
2024-02-14T04:49:26.702Z,6.90
2024-02-14T04:51:53.817Z,6.90
2024-02-14T04:54:20.433Z,6.90
2024-02-14T04:56:48.374Z,7.00
2024-02-14T04:59:16.607Z,7.00
2024-02-14T05:01:43.630Z,7.10
2024-02-14T05:04:10.523Z,7.00
2024-02-14T05:06:37.740Z,7.10
2024-02-14T05:09:04.595Z,7.10
2024-02-14T05:11:31.425Z,7.10
2024-02-14T05:13:58.171Z,7.10
2024-02-14T05:16:25.107Z,7.10
2024-02-14T05:18:51.964Z,7.20
2024-02-14T05:21:21.594Z,7.20
2024-02-14T05:23:49.425Z,7.30
2024-02-14T05:26:16.070Z,7.30
2024-02-14T05:28:43.300Z,7.30
2024-02-14T05:31:10.040Z,7.30
2024-02-14T05:33:36.980Z,7.40
2024-02-14T05:36:04.420Z,7.40
2024-02-14T05:38:31.261Z,7.40
2024-02-14T05:40:57.940Z,7.50
2024-02-14T05:43:25.129Z,7.50
2024-02-14T05:45:51.788Z,7.50
2024-02-14T05:48:18.570Z,7.60
2024-02-14T05:50:45.309Z,7.60
2024-02-14T05:53:13.404Z,7.60
2024-02-14T05:55:40.067Z,7.60
2024-02-14T05:58:06.737Z,7.70
2024-02-14T06:00:33.571Z,7.70
2024-02-14T06:03:00.344Z,7.80
2024-02-14T06:05:27.029Z,7.80
2024-02-14T06:07:53.778Z,7.80
2024-02-14T06:10:20.487Z,7.80
2024-02-14T06:12:48.946Z,7.90
2024-02-14T06:15:15.969Z,7.90
2024-02-14T06:17:42.766Z,7.90
2024-02-14T06:20:10.203Z,8.00
2024-02-14T06:22:44.578Z,8.00
2024-02-14T06:25:14.704Z,8.00
2024-02-14T06:27:41.421Z,8.10
2024-02-14T06:30:09.013Z,8.10
2024-02-14T06:32:36.750Z,8.10
2024-02-14T06:35:04.687Z,8.10
2024-02-14T06:37:39.192Z,8.10
2024-02-14T06:40:12.354Z,8.10
2024-02-14T06:42:39.268Z,8.20
2024-02-14T06:45:07.767Z,8.20
2024-02-14T06:47:34.510Z,8.30
2024-02-14T06:50:01.390Z,8.30
2024-02-14T06:52:28.072Z,8.30
2024-02-14T06:54:54.781Z,8.30
2024-02-14T06:57:21.417Z,8.40
2024-02-14T06:59:48.111Z,8.40
2024-02-14T07:02:14.888Z,8.40
2024-02-14T07:04:41.932Z,8.50
2024-02-14T07:07:09.042Z,8.50
2024-02-14T07:09:40.153Z,8.50
2024-02-14T07:12:07.199Z,8.60
2024-02-14T07:14:33.957Z,8.70
2024-02-14T07:17:00.631Z,8.70
2024-02-14T07:19:27.424Z,8.70
2024-02-14T07:21:54.165Z,8.70
2024-02-14T07:24:20.814Z,8.80
2024-02-14T07:26:47.488Z,8.80
2024-02-14T07:29:14.360Z,8.80
2024-02-14T07:31:41.086Z,8.80
2024-02-14T07:34:09.973Z,8.90
2024-02-14T07:36:37.095Z,8.90
2024-02-14T07:39:04.549Z,9.00
2024-02-14T07:41:31.372Z,8.90
2024-02-14T07:43:58.272Z,9.00
2024-02-14T07:46:27.504Z,9.00
2024-02-14T07:48:54.541Z,9.00
2024-02-14T07:51:21.536Z,9.10
2024-02-14T07:53:48.259Z,9.10
2024-02-14T07:56:14.992Z,9.20
2024-02-14T07:58:41.634Z,9.20
2024-02-14T08:01:08.369Z,9.30
2024-02-14T08:03:35.129Z,9.20
2024-02-14T08:06:02.098Z,9.20
2024-02-14T08:08:29.210Z,9.30
2024-02-14T08:10:56.109Z,9.20
2024-02-14T08:13:22.834Z,9.30
2024-02-14T08:15:50.924Z,9.30
2024-02-14T08:18:17.854Z,9.40
2024-02-14T08:20:44.725Z,9.40
2024-02-14T08:23:11.501Z,9.40
2024-02-14T08:25:38.242Z,9.50
2024-02-14T08:28:05.220Z,9.40
2024-02-14T08:30:32.123Z,9.50
2024-02-14T08:32:59.123Z,9.50
2024-02-14T08:35:25.954Z,9.60
2024-02-14T08:37:52.631Z,9.60
2024-02-14T08:40:19.322Z,9.60
2024-02-14T08:42:45.985Z,9.70
2024-02-14T08:45:12.764Z,9.70
2024-02-14T08:47:40.355Z,9.80
2024-02-14T08:50:07.725Z,9.80
2024-02-14T08:52:34.499Z,9.90
2024-02-14T08:55:01.120Z,10.00
2024-02-14T08:57:27.763Z,10.00
2024-02-14T08:59:54.472Z,10.00
2024-02-14T09:02:23.528Z,10.10
2024-02-14T09:04:52.081Z,10.10
2024-02-14T09:07:18.889Z,10.10
2024-02-14T09:09:47.223Z,10.20
2024-02-14T09:12:13.983Z,10.20
2024-02-14T09:14:40.699Z,10.20
2024-02-14T09:17:07.340Z,10.10
2024-02-14T09:19:34.106Z,10.20
2024-02-14T09:22:00.917Z,10.20
2024-02-14T09:24:27.710Z,10.10
2024-02-14T09:26:54.467Z,10.20
2024-02-14T09:29:21.227Z,10.10
2024-02-14T09:31:49.725Z,10.10
2024-02-14T09:34:19.376Z,10.20
2024-02-14T09:36:49.725Z,10.30
2024-02-14T09:39:18.827Z,10.30
2024-02-14T09:41:52.220Z,10.40
2024-02-14T09:44:19.622Z,10.30
2024-02-14T09:46:47.379Z,10.40
2024-02-14T09:49:17.011Z,10.40
2024-02-14T09:51:47.544Z,10.40
2024-02-14T09:54:14.947Z,10.50
2024-02-14T09:56:41.725Z,10.60
2024-02-14T09:59:10.924Z,10.70
2024-02-14T10:01:37.758Z,10.70
2024-02-14T10:04:04.544Z,10.70
2024-02-14T10:06:32.280Z,10.70
2024-02-14T10:09:03.842Z,10.80
2024-02-14T10:11:35.184Z,10.80
2024-02-14T10:14:04.834Z,10.80
2024-02-14T10:16:32.274Z,10.90
2024-02-14T10:18:59.228Z,10.90
2024-02-14T10:21:26.919Z,11.00
2024-02-14T10:23:54.347Z,10.90
2024-02-14T10:26:21.664Z,11.00
2024-02-14T10:28:50.413Z,10.90
2024-02-14T10:31:17.859Z,10.90
2024-02-14T10:33:45.083Z,10.90
2024-02-14T10:36:13.968Z,10.90
2024-02-14T10:38:42.213Z,10.90
2024-02-14T10:41:11.251Z,10.90
2024-02-14T10:43:41.028Z,11.00
2024-02-14T10:46:13.216Z,10.80
2024-02-14T10:48:40.532Z,10.90
2024-02-14T10:51:11.217Z,10.80
2024-02-14T10:53:46.158Z,10.80
2024-02-14T10:56:20.842Z,10.70
2024-02-14T10:58:48.585Z,10.80
2024-02-14T11:01:17.188Z,10.80
2024-02-14T11:03:45.617Z,10.80
2024-02-14T11:06:18.256Z,10.80
2024-02-14T11:09:02.729Z,10.80
2024-02-14T11:11:31.824Z,10.80
2024-02-14T11:13:58.970Z,10.80
2024-02-14T11:16:29.960Z,10.80
2024-02-14T11:19:13.147Z,10.70
2024-02-14T11:21:47.043Z,10.90
2024-02-14T11:24:16.297Z,10.80
2024-02-14T11:26:53.178Z,10.90
2024-02-14T11:29:23.168Z,10.80
2024-02-14T11:32:02.823Z,10.80
2024-02-14T11:34:35.163Z,10.70
2024-02-14T11:37:06.070Z,10.80
2024-02-14T11:39:34.577Z,10.80
2024-02-14T11:42:01.785Z,10.70
2024-02-14T11:44:28.506Z,10.80
2024-02-14T11:46:55.285Z,10.80
2024-02-14T11:49:22.417Z,10.80
2024-02-14T11:51:49.184Z,10.90
2024-02-14T11:54:16.718Z,10.90
2024-02-14T11:56:43.977Z,10.80
2024-02-14T11:59:11.402Z,10.80
2024-02-14T12:01:39.433Z,10.90
2024-02-14T12:04:10.616Z,10.90
2024-02-14T12:06:38.842Z,10.90
2024-02-14T12:09:07.694Z,10.90
2024-02-14T12:11:35.087Z,10.90
2024-02-14T12:14:04.107Z,10.90
2024-02-14T12:16:33.040Z,10.90
2024-02-14T12:19:09.514Z,10.90
2024-02-14T12:21:40.643Z,10.90
2024-02-14T12:24:12.170Z,11.00
2024-02-14T12:26:39.850Z,11.00
2024-02-14T12:29:10.142Z,11.00
2024-02-14T12:31:37.634Z,11.10
2024-02-14T12:34:06.218Z,11.00
2024-02-14T12:36:34.393Z,11.10
2024-02-14T12:39:05.138Z,11.10
2024-02-14T12:41:32.941Z,11.10
2024-02-14T12:44:01.350Z,11.10
2024-02-14T12:46:29.183Z,11.10
2024-02-14T12:48:56.132Z,11.10
2024-02-14T12:51:23.158Z,11.20
2024-02-14T12:53:49.973Z,11.10
2024-02-14T12:56:16.635Z,11.10
2024-02-14T12:58:43.739Z,11.10
2024-02-14T13:01:12.088Z,11.10
2024-02-14T13:03:39.395Z,11.20
2024-02-14T13:06:06.495Z,11.20
2024-02-14T13:08:33.564Z,11.20
2024-02-14T13:11:00.498Z,11.20
2024-02-14T13:13:27.154Z,11.20
2024-02-14T13:15:53.819Z,11.30
2024-02-14T13:18:21.038Z,11.30
2024-02-14T13:20:48.164Z,11.20
2024-02-14T13:23:15.393Z,11.20
2024-02-14T13:25:42.399Z,11.20
2024-02-14T13:28:09.129Z,11.30
2024-02-14T13:30:37.415Z,11.30
2024-02-14T13:33:05.791Z,11.30
2024-02-14T13:35:32.939Z,11.30
2024-02-14T13:37:59.738Z,11.20
2024-02-14T13:40:26.398Z,11.40
2024-02-14T13:42:53.106Z,11.30
2024-02-14T13:45:20.277Z,11.30
2024-02-14T13:47:48.135Z,11.30
2024-02-14T13:50:14.869Z,11.30
2024-02-14T13:52:41.581Z,11.30
2024-02-14T13:55:08.970Z,11.30
2024-02-14T13:57:41.442Z,11.20
2024-02-14T14:00:12.647Z,11.20
2024-02-14T14:02:43.018Z,11.10
2024-02-14T14:05:11.031Z,11.20
2024-02-14T14:07:53.654Z,11.20
2024-02-14T14:10:27.086Z,11.20
2024-02-14T14:12:53.877Z,11.10
2024-02-14T14:15:20.699Z,11.30
2024-02-14T14:17:47.688Z,11.30
2024-02-14T14:20:14.868Z,11.30
2024-02-14T14:22:41.796Z,11.40
2024-02-14T14:25:09.324Z,11.40
2024-02-14T14:27:36.642Z,11.40
2024-02-14T14:30:04.210Z,11.40
2024-02-14T14:32:30.928Z,11.40
2024-02-14T14:34:57.698Z,11.50
2024-02-14T14:37:24.435Z,11.40
2024-02-14T14:39:51.112Z,11.40
2024-02-14T14:42:19.098Z,11.40
2024-02-14T14:44:46.007Z,11.30
2024-02-14T14:47:12.729Z,11.40
2024-02-14T14:49:39.936Z,11.30
2024-02-14T14:52:06.880Z,11.30
2024-02-14T14:54:33.740Z,11.20
2024-02-14T14:57:10.469Z,11.20
2024-02-14T14:59:37.289Z,11.30
2024-02-14T15:02:04.181Z,11.20
2024-02-14T15:04:30.914Z,11.20
2024-02-14T15:06:57.772Z,11.20
2024-02-14T15:09:24.561Z,11.20
2024-02-14T15:11:51.643Z,11.20
2024-02-14T15:14:18.997Z,11.20
2024-02-14T15:16:45.749Z,11.20
2024-02-14T15:19:12.672Z,11.20
2024-02-14T15:21:39.452Z,11.20
2024-02-14T15:24:07.866Z,11.20
2024-02-14T15:26:50.219Z,11.20
2024-02-14T15:29:37.140Z,11.10
2024-02-14T15:32:23.028Z,11.10
2024-02-14T15:34:50.431Z,11.10
2024-02-14T15:37:18.709Z,11.10
2024-02-14T15:39:45.751Z,11.10
2024-02-14T15:42:13.008Z,11.20
2024-02-14T15:44:39.909Z,11.10
2024-02-14T15:47:06.638Z,11.10
2024-02-14T15:49:35.365Z,11.10
2024-02-14T15:52:03.027Z,11.10
2024-02-14T15:54:29.664Z,11.10
2024-02-14T15:56:57.027Z,11.10
2024-02-14T15:59:23.834Z,11.00
2024-02-14T16:01:50.467Z,11.00
2024-02-14T16:04:17.751Z,11.00
2024-02-14T16:06:44.577Z,11.10
2024-02-14T16:09:11.673Z,11.00
2024-02-14T16:11:38.414Z,11.10
2024-02-14T16:14:05.246Z,11.00
2024-02-14T16:16:32.849Z,11.00
2024-02-14T16:19:00.719Z,11.00
2024-02-14T16:21:27.885Z,11.00
2024-02-14T16:23:54.652Z,11.00
2024-02-14T16:26:21.337Z,11.00
2024-02-14T16:28:47.972Z,11.00
2024-02-14T16:31:15.598Z,11.00
2024-02-14T16:33:43.438Z,11.00
2024-02-14T16:36:10.297Z,11.00
2024-02-14T16:38:36.981Z,10.90
2024-02-14T16:41:03.775Z,11.00
2024-02-14T16:43:30.659Z,10.90
2024-02-14T16:45:57.742Z,10.90
2024-02-14T16:48:24.723Z,10.90
2024-02-14T16:50:51.512Z,10.90
2024-02-14T16:53:18.241Z,10.90
2024-02-14T16:55:44.940Z,10.90
2024-02-14T16:58:11.572Z,10.90
2024-02-14T17:00:38.463Z,11.00
2024-02-14T17:03:12.051Z,10.90
2024-02-14T17:05:43.687Z,10.90
2024-02-14T17:08:11.046Z,10.90
2024-02-14T17:10:37.676Z,10.90
2024-02-14T17:13:04.473Z,10.90
2024-02-14T17:15:31.218Z,10.90
2024-02-14T17:17:57.960Z,10.90
2024-02-14T17:20:24.856Z,10.90
2024-02-14T17:22:51.791Z,10.90
2024-02-14T17:25:19.230Z,11.00
2024-02-14T17:27:48.143Z,10.90
2024-02-14T17:30:15.586Z,10.90
2024-02-14T17:32:47.278Z,10.90
2024-02-14T17:35:14.179Z,10.90
2024-02-14T17:37:41.584Z,11.00
2024-02-14T17:40:11.902Z,11.00
2024-02-14T17:42:39.308Z,10.90
2024-02-14T17:45:07.200Z,10.90
2024-02-14T17:47:34.881Z,10.90
2024-02-14T17:50:03.725Z,11.00
2024-02-14T17:52:30.529Z,10.90
2024-02-14T17:54:57.343Z,10.90
2024-02-14T17:57:25.746Z,11.00
2024-02-14T17:59:53.526Z,11.00
2024-02-14T18:02:21.102Z,11.00
2024-02-14T18:04:48.012Z,11.10
2024-02-14T18:07:15.013Z,11.00
2024-02-14T18:09:41.934Z,11.00
2024-02-14T18:12:08.894Z,11.00
2024-02-14T18:14:35.689Z,11.00
2024-02-14T18:17:02.468Z,11.00
2024-02-14T18:19:30.153Z,10.90
2024-02-14T18:21:57.339Z,11.00
2024-02-14T18:24:24.299Z,11.00
2024-02-14T18:26:51.093Z,10.90
2024-02-14T18:29:17.874Z,10.90
2024-02-14T18:31:44.785Z,11.00
2024-02-14T18:34:11.627Z,11.00
2024-02-14T18:36:38.483Z,11.00
2024-02-14T18:39:05.319Z,11.00
2024-02-14T18:41:32.117Z,11.00
2024-02-14T18:44:04.430Z,11.00
2024-02-14T18:46:31.374Z,11.00
2024-02-14T18:48:58.780Z,11.00
2024-02-14T18:51:25.832Z,11.00
2024-02-14T18:53:52.656Z,11.10
2024-02-14T18:56:22.649Z,11.00
2024-02-14T18:58:50.608Z,11.00
2024-02-14T19:01:29.230Z,11.00
2024-02-14T19:03:56.399Z,11.10
2024-02-14T19:06:24.309Z,11.10
2024-02-14T19:08:52.241Z,11.00
2024-02-14T19:11:19.423Z,11.00
2024-02-14T19:13:46.460Z,11.00
2024-02-14T19:16:23.674Z,11.00
2024-02-14T19:18:55.173Z,11.00
2024-02-14T19:21:21.910Z,11.10
2024-02-14T19:23:48.823Z,11.00
2024-02-14T19:26:15.735Z,11.10
2024-02-14T19:28:42.418Z,11.00
2024-02-14T19:31:09.228Z,11.10
2024-02-14T19:33:36.075Z,11.00
2024-02-14T19:36:03.030Z,11.00
2024-02-14T19:38:29.683Z,11.10
2024-02-14T19:40:56.435Z,11.10
2024-02-14T19:43:31.800Z,11.10
2024-02-14T19:46:01.992Z,11.10
2024-02-14T19:48:31.315Z,11.10
2024-02-14T19:50:58.853Z,11.10
2024-02-14T19:53:25.626Z,11.10
2024-02-14T19:55:52.283Z,11.10
2024-02-14T19:58:19.173Z,11.00
2024-02-14T20:00:45.996Z,11.10
2024-02-14T20:03:15.736Z,11.10
2024-02-14T20:05:43.750Z,11.10
2024-02-14T20:08:10.689Z,11.10
2024-02-14T20:10:37.358Z,11.10
2024-02-14T20:13:04.578Z,11.10
2024-02-14T20:15:31.629Z,11.10
2024-02-14T20:17:58.440Z,11.10
2024-02-14T20:20:25.218Z,11.10
2024-02-14T20:22:52.035Z,11.10
2024-02-14T20:25:18.951Z,11.10
2024-02-14T20:27:46.309Z,11.10
2024-02-14T20:30:16.289Z,11.20
2024-02-14T20:32:44.017Z,11.10
2024-02-14T20:35:15.578Z,11.20
2024-02-14T20:37:44.146Z,11.20
2024-02-14T20:40:14.898Z,11.10
2024-02-14T20:42:42.883Z,11.20
2024-02-14T20:45:10.622Z,11.20
2024-02-14T20:47:38.141Z,11.20
2024-02-14T20:50:07.028Z,11.20
2024-02-14T20:52:34.306Z,11.20
2024-02-14T20:55:02.068Z,11.10
2024-02-14T20:57:28.817Z,11.20
2024-02-14T20:59:55.885Z,11.20
2024-02-14T21:02:22.558Z,11.20
2024-02-14T21:04:49.358Z,11.20
2024-02-14T21:07:16.568Z,11.30
2024-02-14T21:09:43.611Z,11.30
2024-02-14T21:12:11.036Z,11.20
2024-02-14T21:14:38.433Z,11.30
2024-02-14T21:17:05.426Z,11.30
2024-02-14T21:19:32.258Z,11.30
2024-02-14T21:21:58.970Z,11.30
2024-02-14T21:24:25.923Z,11.20
2024-02-14T21:26:53.227Z,11.30
2024-02-14T21:29:19.990Z,11.40
2024-02-14T21:31:46.686Z,11.40
2024-02-14T21:34:13.656Z,11.40
2024-02-14T21:36:40.742Z,11.40
2024-02-14T21:39:07.827Z,11.40
2024-02-14T21:41:35.924Z,11.40
2024-02-14T21:44:03.894Z,11.50
2024-02-14T21:46:30.861Z,11.50
2024-02-14T21:48:58.622Z,11.40
2024-02-14T21:51:29.338Z,11.50
2024-02-14T21:53:56.080Z,11.40
2024-02-14T21:56:22.792Z,11.50
2024-02-14T21:58:49.489Z,11.40
2024-02-14T22:01:16.167Z,11.50
2024-02-14T22:03:43.009Z,11.40
2024-02-14T22:06:09.748Z,11.50
2024-02-14T22:08:36.633Z,11.50
2024-02-14T22:11:03.569Z,11.40
2024-02-14T22:13:31.872Z,11.50
2024-02-14T22:15:58.634Z,11.50
2024-02-14T22:18:26.355Z,11.50
2024-02-14T22:20:53.928Z,11.50
2024-02-14T22:23:20.633Z,11.50
2024-02-14T22:25:47.655Z,11.50
2024-02-14T22:28:14.459Z,11.50
2024-02-14T22:30:42.448Z,11.50
2024-02-14T22:33:11.325Z,11.50
2024-02-14T22:35:38.359Z,11.40
2024-02-14T22:38:09.373Z,11.50
2024-02-14T22:40:37.251Z,11.50
2024-02-14T22:43:08.733Z,11.50
2024-02-14T22:45:35.847Z,11.50
2024-02-14T22:48:03.314Z,11.60
2024-02-14T22:50:30.092Z,11.60
2024-02-14T22:52:56.741Z,11.60
2024-02-14T22:55:23.897Z,11.50
2024-02-14T22:57:50.579Z,11.50
2024-02-14T23:00:22.805Z,11.60
2024-02-14T23:02:50.737Z,11.60
2024-02-14T23:05:23.850Z,11.50
2024-02-14T23:07:51.076Z,11.50
2024-02-14T23:10:18.475Z,11.60
2024-02-14T23:12:46.165Z,11.60
2024-02-14T23:15:13.726Z,11.50
2024-02-14T23:17:42.547Z,11.60
2024-02-14T23:20:12.906Z,11.60
2024-02-14T23:22:39.585Z,11.60
2024-02-14T23:25:06.969Z,11.60
2024-02-14T23:27:33.598Z,11.60
2024-02-14T23:30:00.497Z,11.50
2024-02-14T23:32:27.405Z,11.60
2024-02-14T23:34:54.959Z,11.70
2024-02-14T23:37:22.182Z,11.60
2024-02-14T23:39:48.796Z,11.70
2024-02-14T23:42:15.479Z,11.70
2024-02-14T23:44:42.178Z,11.70
2024-02-14T23:47:09.080Z,11.70
2024-02-14T23:49:37.671Z,11.70
2024-02-14T23:52:04.949Z,11.70
2024-02-14T23:54:31.734Z,11.70
2024-02-14T23:56:58.992Z,11.70
2024-02-14T23:59:26.972Z,11.70
